Time;durP1;ratioP1;P1;durP2;ratioP2;P2;SDS_P1;SDS_P2;PMS_P1;PMS_P2;Temp;Humidity;BMP_temperature;BMP_pressure;BME280_temperature;BME280_humidity;BME280_pressure;Samples;Min_cycle;Max_cycle;Signal;HPM_P1;HPM_P2
2021/12/26 00:02:09;;;;;;;1.30;0.32;;;17.60;43.30;;;;;;5014820;28;20513;-80
2021/12/26 00:04:34;;;;;;;1.00;0.40;;;17.60;43.30;;;;;;5028278;28;20049;-80
2021/12/26 00:07:01;;;;;;;1.05;0.28;;;18.40;43.70;;;;;;5028606;28;20504;-80
2021/12/26 00:09:26;;;;;;;1.52;0.47;;;17.60;43.30;;;;;;5028036;28;20091;-80
2021/12/26 00:11:52;;;;;;;0.63;0.35;;;17.60;43.30;;;;;;5028194;28;20076;-80
2021/12/26 00:14:20;;;;;;;1.42;0.40;;;17.60;43.30;;;;;;5028437;28;20140;-80
2021/12/26 00:16:55;;;;;;;2.13;0.38;;;17.60;43.40;;;;;;5028395;28;20524;-79
2021/12/26 00:19:20;;;;;;;0.82;0.35;;;17.60;43.40;;;;;;5028471;28;20041;-79
2021/12/26 00:21:47;;;;;;;0.85;0.30;;;17.60;43.30;;;;;;5028135;28;20164;-80
2021/12/26 00:24:13;;;;;;;1.13;0.40;;;17.60;43.30;;;;;;5027670;28;20041;-79
2021/12/26 00:26:39;;;;;;;1.25;0.40;;;17.60;43.30;;;;;;5028396;28;20053;-79
2021/12/26 00:29:04;;;;;;;1.35;0.38;;;17.60;43.30;;;;;;5027955;28;20704;-79
2021/12/26 00:31:30;;;;;;;0.88;0.35;;;17.60;43.30;;;;;;5027869;28;20041;-79
2021/12/26 00:33:56;;;;;;;1.23;0.35;;;17.50;43.30;;;;;;5028253;28;20137;-79
2021/12/26 00:36:21;;;;;;;2.15;0.40;;;17.50;43.20;;;;;;5027690;28;20056;-80
2021/12/26 00:38:47;;;;;;;0.60;0.20;;;17.50;43.20;;;;;;5027918;28;20658;-79
2021/12/26 00:41:12;;;;;;;0.93;0.40;;;17.50;43.30;;;;;;5028461;28;20064;-79
2021/12/26 00:43:38;;;;;;;0.65;0.30;;;17.50;43.20;;;;;;5027509;28;20529;-80
2021/12/26 00:46:04;;;;;;;0.70;0.30;;;17.50;43.20;;;;;;5028108;28;20397;-80
2021/12/26 00:48:29;;;;;;;0.95;0.40;;;17.50;43.20;;;;;;5030108;28;20128;-79
2021/12/26 00:50:55;;;;;;;0.60;0.38;;;17.50;43.20;;;;;;5031613;28;20077;-80
2021/12/26 00:53:20;;;;;;;1.55;0.40;;;17.50;43.20;;;;;;5031602;28;20045;-79
2021/12/26 00:55:46;;;;;;;1.38;0.43;;;17.50;43.20;;;;;;5031649;28;20138;-79
2021/12/26 00:58:11;;;;;;;1.50;0.40;;;17.50;43.20;;;;;;5031208;28;20061;-80
2021/12/26 01:00:42;;;;;;;0.68;0.30;;;17.50;43.20;;;;;;5031442;28;20053;-79
2021/12/26 01:03:08;;;;;;;1.67;0.50;;;17.50;43.20;;;;;;5033020;28;20099;-79
2021/12/26 01:05:34;;;;;;;0.82;0.25;;;17.50;43.20;;;;;;5031262;28;20069;-79
2021/12/26 01:08:02;;;;;;;0.93;0.40;;;17.50;43.20;;;;;;5031634;28;20122;-79
2021/12/26 01:10:34;;;;;;;1.35;0.40;;;17.50;43.20;;;;;;5031766;28;20053;-80
2021/12/26 01:13:09;;;;;;;;;;;17.50;43.20;;;;;;5031433;28;20507;-79
2021/12/26 01:15:34;;;;;;;0.80;0.32;;;17.50;43.20;;;;;;5031303;28;20042;-80
2021/12/26 01:18:00;;;;;;;0.88;0.30;;;17.40;43.10;;;;;;5031318;28;20103;-80
2021/12/26 01:20:40;;;;;;;1.05;0.30;;;17.50;43.20;;;;;;5031162;28;20159;-81
2021/12/26 01:23:10;;;;;;;0.68;0.30;;;17.40;43.10;;;;;;5031515;28;20055;-80
2021/12/26 01:25:36;;;;;;;1.42;0.40;;;17.40;43.10;;;;;;5030542;28;20865;-79
2021/12/26 01:28:02;;;;;;;1.10;0.50;;;17.40;43.10;;;;;;5031340;28;20104;-80
2021/12/26 01:30:27;;;;;;;0.60;0.30;;;17.40;43.10;;;;;;5031467;28;20150;-80
2021/12/26 01:32:53;;;;;;;1.25;0.40;;;17.40;43.10;;;;;;5030500;28;20409;-80
2021/12/26 01:35:19;;;;;;;1.00;0.40;;;17.40;43.10;;;;;;5030786;28;20081;-79
2021/12/26 01:37:44;;;;;;;1.15;0.40;;;17.40;43.10;;;;;;5031005;28;20045;-80
2021/12/26 01:40:11;;;;;;;1.10;0.38;;;18.10;43.50;;;;;;5030841;28;20092;-80
2021/12/26 01:42:37;;;;;;;1.27;0.40;;;17.40;43.10;;;;;;5031088;28;20052;-80
2021/12/26 01:45:03;;;;;;;1.27;0.40;;;17.40;43.10;;;;;;5031086;28;20041;-80
2021/12/26 01:47:28;;;;;;;1.08;0.38;;;17.40;43.10;;;;;;5030562;28;20053;-80
2021/12/26 01:49:54;;;;;;;0.90;0.40;;;17.40;43.10;;;;;;5031075;28;20401;-79
2021/12/26 01:52:19;;;;;;;1.20;0.40;;;17.40;43.10;;;;;;5030616;28;20056;-80
2021/12/26 01:54:48;;;;;;;1.02;0.30;;;17.40;43.10;;;;;;5030361;28;20029;-79
2021/12/26 01:57:15;;;;;;;1.10;0.38;;;17.40;43.10;;;;;;5029980;28;20498;-80
2021/12/26 01:59:41;;;;;;;0.82;0.30;;;17.30;43.10;;;;;;5013023;28;20053;-79
2021/12/26 02:02:07;;;;;;;0.93;0.40;;;17.30;43.00;;;;;;5030160;28;20053;-79
2021/12/26 02:04:32;;;;;;;1.15;0.40;;;17.30;43.00;;;;;;5030168;28;20053;-79
2021/12/26 02:06:59;;;;;;;0.85;0.40;;;17.30;43.00;;;;;;5014037;28;20409;-80
2021/12/26 02:09:25;;;;;;;1.10;0.30;;;17.30;43.00;;;;;;5029907;28;20052;-79
2021/12/26 02:11:51;;;;;;;0.90;0.22;;;17.30;43.70;;;;;;5030445;28;20045;-79
2021/12/26 02:14:16;;;;;;;0.50;0.30;;;18.20;43.50;;;;;;5030243;28;20053;-80
2021/12/26 02:16:42;;;;;;;0.55;0.30;;;17.30;43.00;;;;;;5029450;28;20060;-79
2021/12/26 02:19:07;;;;;;;0.68;0.40;;;18.20;43.50;;;;;;5030040;28;20142;-81
2021/12/26 02:24:24;;;;;;;1.00;0.40;;;17.30;43.00;;;;;;5029751;28;20057;-79
2021/12/26 02:29:33;;;;;;;1.30;0.40;;;17.20;42.90;;;;;;5029375;28;20092;-79
2021/12/26 02:31:59;;;;;;;1.02;0.40;;;17.30;43.00;;;;;;5029758;28;20477;-79
2021/12/26 02:34:24;;;;;;;0.65;0.32;;;17.20;42.90;;;;;;5029916;28;20060;-79
2021/12/26 02:36:50;;;;;;;1.02;0.40;;;17.20;42.90;;;;;;5029599;28;20099;-81
2021/12/26 02:39:15;;;;;;;0.60;0.30;;;17.20;42.90;;;;;;5029599;28;20211;-81
2021/12/26 02:41:44;;;;;;;0.82;0.40;;;17.20;42.90;;;;;;5031512;28;20044;-79
2021/12/26 02:44:10;;;;;;;1.23;0.45;;;17.20;42.90;;;;;;5029289;28;20162;-79
2021/12/26 02:46:35;;;;;;;0.80;0.30;;;17.20;42.90;;;;;;5029376;28;20099;-79
2021/12/26 02:49:01;;;;;;;1.92;0.47;;;17.20;42.90;;;;;;5029894;28;20077;-79
2021/12/26 02:51:26;;;;;;;0.60;0.30;;;17.20;42.90;;;;;;5027615;28;20505;-79
2021/12/26 02:53:52;;;;;;;2.22;0.40;;;17.20;42.90;;;;;;5029606;28;20131;-79
2021/12/26 02:56:18;;;;;;;0.90;0.55;;;17.20;42.90;;;;;;5029450;28;20088;-79
2021/12/26 02:58:44;;;;;;;0.90;0.40;;;17.90;43.30;;;;;;5028625;28;20589;-79
2021/12/26 03:01:21;;;;;;;1.25;0.43;;;17.20;42.90;;;;;;5029328;28;20053;-79
2021/12/26 03:03:47;;;;;;;1.35;0.45;;;17.20;42.90;;;;;;5029058;28;20041;-79
2021/12/26 03:06:20;;;;;;;1.02;0.40;;;17.20;43.00;;;;;;5029127;28;20056;-79
2021/12/26 03:08:47;;;;;;;0.57;0.30;;;17.20;42.90;;;;;;5029439;28;20088;-79
2021/12/26 03:11:13;;;;;;;0.85;0.40;;;17.10;42.90;;;;;;5028530;28;20050;-79
2021/12/26 03:13:39;;;;;;;1.42;0.38;;;17.10;42.90;;;;;;5029023;28;20051;-79
2021/12/26 03:16:04;;;;;;;0.85;0.30;;;17.10;42.90;;;;;;5029278;28;20060;-79
2021/12/26 03:18:30;;;;;;;1.30;0.30;;;17.10;42.90;;;;;;5029156;28;20041;-80
2021/12/26 03:20:55;;;;;;;0.70;0.30;;;17.10;42.90;;;;;;5026857;28;20065;-79
2021/12/26 03:23:22;;;;;;;1.40;0.40;;;17.10;42.90;;;;;;5029097;28;20448;-79
2021/12/26 03:25:48;;;;;;;0.80;0.30;;;17.10;42.90;;;;;;5045222;28;20052;-81
2021/12/26 03:28:14;;;;;;;0.70;0.30;;;18.00;43.30;;;;;;5029213;28;20049;-79
2021/12/26 03:30:39;;;;;;;0.77;0.40;;;17.10;42.90;;;;;;5045984;28;20094;-79
2021/12/26 03:33:07;;;;;;;0.75;0.30;;;17.10;42.80;;;;;;5028201;28;20061;-79
2021/12/26 03:35:33;;;;;;;0.60;0.30;;;17.10;42.80;;;;;;5028461;28;20498;-79
2021/12/26 03:37:59;;;;;;;1.00;0.30;;;17.10;42.90;;;;;;5029095;28;20065;-79
2021/12/26 03:40:24;;;;;;;1.63;0.40;;;17.10;42.80;;;;;;5028481;28;20057;-79
2021/12/26 03:42:53;;;;;;;0.93;0.40;;;17.10;42.90;;;;;;5028417;28;20095;-79
2021/12/26 03:45:19;;;;;;;1.00;0.32;;;17.20;42.90;;;;;;5028438;28;20050;-79
2021/12/26 03:47:48;;;;;;;0.98;0.40;;;17.00;42.80;;;;;;5028149;28;20185;-79
2021/12/26 03:50:14;;;;;;;1.77;0.40;;;17.10;42.90;;;;;;5045335;28;20124;-79
2021/12/26 03:52:40;;;;;;;0.68;0.38;;;17.10;42.80;;;;;;5028632;28;20132;-79
2021/12/26 03:55:05;;;;;;;0.88;0.40;;;17.00;42.80;;;;;;5027880;28;20658;-79
2021/12/26 03:57:31;;;;;;;0.90;0.40;;;17.00;42.80;;;;;;5028437;28;20409;-79
2021/12/26 03:59:56;;;;;;;0.75;0.30;;;17.00;42.80;;;;;;5044476;28;20405;-79
2021/12/26 04:02:22;;;;;;;1.08;0.40;;;17.00;42.80;;;;;;5044914;28;20053;-80
2021/12/26 04:04:48;;;;;;;0.57;0.30;;;17.00;42.80;;;;;;5028770;28;20116;-79
2021/12/26 04:07:13;;;;;;;1.00;0.40;;;17.00;42.80;;;;;;5044764;28;20564;-79
2021/12/26 04:09:39;;;;;;;1.00;0.32;;;17.00;42.80;;;;;;5028021;28;20453;-79
2021/12/26 04:12:05;;;;;;;1.02;0.35;;;17.00;42.80;;;;;;5044722;28;20049;-79
2021/12/26 04:14:30;;;;;;;1.05;0.45;;;17.00;42.80;;;;;;5026552;28;20085;-79
2021/12/26 04:16:56;;;;;;;1.17;0.40;;;17.00;42.80;;;;;;5028036;28;20147;-79
2021/12/26 04:19:21;;;;;;;1.05;0.50;;;17.80;43.30;;;;;;5028151;28;20046;-79
2021/12/26 04:21:47;;;;;;;0.80;0.40;;;17.00;42.80;;;;;;5027578;28;20111;-79
2021/12/26 04:24:13;;;;;;;1.33;0.40;;;17.00;42.90;;;;;;5031623;28;20052;-79
2021/12/26 04:26:39;;;;;;;0.85;0.40;;;17.00;42.90;;;;;;5032270;28;20060;-79
2021/12/26 04:29:06;;;;;;;1.25;0.50;;;17.00;43.00;;;;;;5031875;28;20393;-79
2021/12/26 04:31:31;;;;;;;0.38;0.22;;;17.00;43.00;;;;;;5032234;28;20053;-79
2021/12/26 04:33:57;;;;;;;0.70;0.30;;;17.00;43.10;;;;;;5032244;28;20053;-79
2021/12/26 04:36:22;;;;;;;1.13;0.50;;;17.00;43.00;;;;;;5031656;28;20052;-79
2021/12/26 04:38:48;;;;;;;1.02;0.30;;;17.10;43.10;;;;;;5031971;28;20041;-79
2021/12/26 04:41:14;;;;;;;1.02;0.40;;;17.10;43.10;;;;;;5032140;28;20052;-79
2021/12/26 04:43:39;;;;;;;0.60;0.20;;;17.10;43.20;;;;;;5031413;28;20053;-79
2021/12/26 04:46:06;;;;;;;0.73;0.30;;;17.10;43.20;;;;;;5031886;28;20053;-79
2021/12/26 04:48:32;;;;;;;1.42;0.40;;;17.10;43.20;;;;;;5031962;28;20124;-79
2021/12/26 04:50:58;;;;;;;0.60;0.40;;;17.90;43.60;;;;;;5031073;28;20053;-79
2021/12/26 04:53:24;;;;;;;0.70;0.30;;;17.10;43.30;;;;;;5034753;28;20068;-79
2021/12/26 04:55:49;;;;;;;1.15;0.35;;;17.10;43.30;;;;;;5031486;28;20790;-79
2021/12/26 04:58:15;;;;;;;1.20;0.43;;;17.10;43.20;;;;;;5030928;28;20053;-79
2021/12/26 05:00:40;;;;;;;1.20;0.40;;;18.30;44.00;;;;;;5032113;28;20107;-78
2021/12/26 05:03:08;;;;;;;0.82;0.30;;;17.20;44.10;;;;;;5031567;28;20536;-79
2021/12/26 05:05:33;;;;;;;1.08;0.40;;;17.20;43.40;;;;;;5031188;28;20056;-79
2021/12/26 05:07:59;;;;;;;0.98;0.40;;;17.20;43.40;;;;;;5031471;28;20049;-79
2021/12/26 05:10:27;;;;;;;0.70;0.40;;;17.20;43.40;;;;;;5031105;28;20042;-79
2021/12/26 05:12:52;;;;;;;0.98;0.35;;;17.20;43.40;;;;;;5031135;28;20080;-79
2021/12/26 05:15:18;;;;;;;1.20;0.40;;;17.20;43.40;;;;;;5031619;28;20643;-79
2021/12/26 05:17:44;;;;;;;0.70;0.40;;;17.20;43.40;;;;;;5031204;28;20049;-79
2021/12/26 05:20:10;;;;;;;0.60;0.30;;;17.20;43.40;;;;;;5031411;28;20049;-79
2021/12/26 05:22:36;;;;;;;1.45;0.47;;;17.20;43.50;;;;;;5031160;28;20057;-79
2021/12/26 05:25:03;;;;;;;1.02;0.30;;;17.30;43.50;;;;;;5030979;28;20045;-78
2021/12/26 05:27:28;;;;;;;1.35;0.40;;;17.30;43.50;;;;;;5005979;28;20042;-78
2021/12/26 05:29:54;;;;;;;1.80;0.50;;;17.30;43.50;;;;;;5011692;28;20053;-79
2021/12/26 05:32:19;;;;;;;0.60;0.30;;;17.30;43.50;;;;;;5008137;28;20057;-79
2021/12/26 05:34:45;;;;;;;1.48;0.52;;;17.30;43.50;;;;;;5011273;28;20042;-78
2021/12/26 05:37:10;;;;;;;1.27;0.40;;;17.20;43.40;;;;;;5011332;28;20053;-79
2021/12/26 05:39:36;;;;;;;1.30;0.50;;;17.30;43.50;;;;;;5009652;28;20129;-78
2021/12/26 05:42:02;;;;;;;0.55;0.30;;;17.30;43.50;;;;;;5010812;28;20053;-79
2021/12/26 05:44:27;;;;;;;1.25;0.40;;;17.40;43.50;;;;;;5011266;28;20045;-79
2021/12/26 05:46:53;;;;;;;1.00;0.40;;;17.40;43.50;;;;;;5003215;28;20044;-79
2021/12/26 05:49:18;;;;;;;0.77;0.35;;;17.40;43.50;;;;;;5019873;28;20413;-79
2021/12/26 05:51:44;;;;;;;0.75;0.45;;;17.40;43.50;;;;;;5030898;28;20045;-79
2021/12/26 05:54:09;;;;;;;1.25;0.50;;;17.40;43.50;;;;;;5030013;28;20492;-78
2021/12/26 05:56:35;;;;;;;0.65;0.30;;;17.70;43.70;;;;;;5030459;28;20072;-79
2021/12/26 05:59:00;;;;;;;1.88;0.43;;;17.40;43.50;;;;;;5030937;28;20033;-79
2021/12/26 06:01:26;;;;;;;0.90;0.47;;;17.40;43.50;;;;;;5029905;28;20060;-78
2021/12/26 06:03:52;;;;;;;1.08;0.50;;;17.40;43.50;;;;;;5030784;28;20049;-79
2021/12/26 06:06:17;;;;;;;0.93;0.50;;;17.40;43.40;;;;;;5029510;28;20488;-78
2021/12/26 06:08:43;;;;;;;0.68;0.40;;;17.50;43.50;;;;;;5029805;28;20379;-79
2021/12/26 06:11:08;;;;;;;0.70;0.40;;;17.40;43.30;;;;;;5030232;28;20102;-79
2021/12/26 06:13:34;;;;;;;1.27;0.50;;;17.40;43.30;;;;;;5030194;28;20061;-79
2021/12/26 06:16:00;;;;;;;0.77;0.43;;;17.40;43.30;;;;;;5030503;28;20053;-79
2021/12/26 06:18:25;;;;;;;1.60;0.40;;;17.50;43.30;;;;;;5030286;28;20042;-79
2021/12/26 06:20:51;;;;;;;1.70;0.43;;;17.50;43.30;;;;;;5029846;28;20375;-79
2021/12/26 06:23:16;;;;;;;0.88;0.30;;;17.40;43.30;;;;;;5029986;28;20046;-79
2021/12/26 06:25:42;;;;;;;1.25;0.40;;;17.40;43.20;;;;;;5030103;28;20056;-79
2021/12/26 06:28:07;;;;;;;1.17;0.40;;;17.40;43.20;;;;;;5029619;28;20127;-78
2021/12/26 06:30:34;;;;;;;1.38;0.50;;;17.40;43.20;;;;;;5028945;28;20037;-79
2021/12/26 06:32:59;;;;;;;0.60;0.38;;;17.40;43.10;;;;;;5029083;28;20136;-79
2021/12/26 06:35:25;;;;;;;1.08;0.47;;;17.40;43.10;;;;;;5029121;28;20206;-79
2021/12/26 06:37:51;;;;;;;0.65;0.30;;;17.40;43.10;;;;;;5029369;28;20057;-79
2021/12/26 06:40:16;;;;;;;1.05;0.40;;;17.40;43.10;;;;;;5028762;28;20152;-80
2021/12/26 06:42:44;;;;;;;0.60;0.30;;;17.40;43.10;;;;;;5029477;28;20542;-79
2021/12/26 06:45:11;;;;;;;1.38;0.45;;;17.40;43.10;;;;;;5030288;28;20045;-80
2021/12/26 06:47:36;;;;;;;1.10;0.50;;;17.40;43.10;;;;;;5029006;28;20107;-80
2021/12/26 06:50:06;;;;;;;1.00;0.50;;;17.40;43.00;;;;;;5028583;28;20140;-79
2021/12/26 06:52:31;;;;;;;0.90;0.40;;;17.40;43.00;;;;;;5029450;28;20064;-79
2021/12/26 06:54:57;;;;;;;1.63;0.40;;;17.40;42.90;;;;;;5029774;28;20401;-80
2021/12/26 06:57:22;;;;;;;1.15;0.43;;;17.40;42.90;;;;;;5028488;28;20114;-79
2021/12/26 06:59:48;;;;;;;1.23;0.30;;;17.40;42.90;;;;;;5029449;28;20046;-79
2021/12/26 07:02:13;;;;;;;0.88;0.40;;;17.40;43.00;;;;;;5029608;28;20045;-79
2021/12/26 07:04:39;;;;;;;1.00;0.50;;;17.40;42.90;;;;;;5028626;28;20057;-79
2021/12/26 07:07:05;;;;;;;1.02;0.30;;;17.40;42.90;;;;;;5029251;28;20048;-79
2021/12/26 07:09:30;;;;;;;0.73;0.30;;;17.40;42.90;;;;;;5029268;28;20049;-79
2021/12/26 07:11:56;;;;;;;1.17;0.40;;;17.40;42.90;;;;;;5018584;28;20076;-79
2021/12/26 07:14:21;;;;;;;1.45;0.40;;;17.40;42.90;;;;;;5009766;28;20108;-80
2021/12/26 07:16:47;;;;;;;1.08;0.43;;;17.40;42.90;;;;;;5009654;28;20137;-80
2021/12/26 07:19:12;;;;;;;0.40;0.30;;;17.40;42.90;;;;;;5009346;28;20049;-80
2021/12/26 07:21:38;;;;;;;1.38;0.50;;;17.40;42.90;;;;;;5009315;28;20529;-80
2021/12/26 07:24:04;;;;;;;0.77;0.40;;;17.40;42.90;;;;;;5008869;28;20375;-81
2021/12/26 07:26:30;;;;;;;0.88;0.40;;;17.40;42.80;;;;;;5009489;28;20547;-81
2021/12/26 07:28:55;;;;;;;0.45;0.30;;;17.40;42.80;;;;;;5008813;28;20045;-80
2021/12/26 07:31:21;;;;;;;0.50;0.30;;;17.40;42.90;;;;;;5007876;28;20076;-80
2021/12/26 07:33:47;;;;;;;1.08;0.32;;;17.40;42.80;;;;;;5009025;28;20054;-80
2021/12/26 07:36:12;;;;;;;1.00;0.50;;;17.40;42.80;;;;;;5008837;28;20046;-80
2021/12/26 07:38:38;;;;;;;1.15;0.50;;;17.40;42.80;;;;;;5008411;28;20050;-79
2021/12/26 07:41:03;;;;;;;0.47;0.30;;;17.40;42.80;;;;;;5008758;28;20041;-78
2021/12/26 07:43:29;;;;;;;1.15;0.40;;;17.40;42.70;;;;;;5008972;28;20053;-78
2021/12/26 07:45:54;;;;;;;0.93;0.47;;;17.40;43.40;;;;;;5008663;28;20045;-79
2021/12/26 07:48:20;;;;;;;1.52;0.47;;;17.40;42.70;;;;;;5008143;28;20553;-79
2021/12/26 07:50:46;;;;;;;1.08;0.40;;;17.40;42.70;;;;;;5009825;28;20057;-79
2021/12/26 07:53:12;;;;;;;1.27;0.32;;;17.60;42.70;;;;;;5008013;28;20509;-79
2021/12/26 07:55:38;;;;;;;0.88;0.40;;;17.40;42.70;;;;;;5010614;28;20064;-80
2021/12/26 07:58:04;;;;;;;1.10;0.40;;;17.40;42.70;;;;;;5028531;28;20068;-79
2021/12/26 08:00:30;;;;;;;1.10;0.50;;;17.30;42.60;;;;;;5027363;28;20088;-78
2021/12/26 08:02:56;;;;;;;1.20;0.40;;;17.40;42.60;;;;;;5028669;28;20524;-80
2021/12/26 08:05:22;;;;;;;1.52;0.40;;;17.40;42.60;;;;;;5028378;28;20041;-79
2021/12/26 08:07:47;;;;;;;0.95;0.40;;;17.40;42.60;;;;;;5024516;28;20171;-79
2021/12/26 08:10:13;;;;;;;0.98;0.50;;;17.30;42.50;;;;;;5023574;28;20053;-79
2021/12/26 08:12:41;;;;;;;1.13;0.40;;;17.30;42.50;;;;;;5026301;28;20413;-79
2021/12/26 08:15:07;;;;;;;0.93;0.40;;;17.40;42.60;;;;;;5027129;28;20049;-79
2021/12/26 08:17:33;;;;;;;1.60;0.60;;;17.30;42.50;;;;;;5026846;28;20685;-79
2021/12/26 08:19:59;;;;;;;0.82;0.40;;;17.30;42.40;;;;;;5011797;28;20038;-79
2021/12/26 08:22:24;;;;;;;1.10;0.40;;;17.30;42.50;;;;;;5026249;28;20108;-79
2021/12/26 08:24:50;;;;;;;1.58;0.57;;;17.30;42.40;;;;;;5013768;28;20536;-79
2021/12/26 08:27:16;;;;;;;1.35;0.50;;;17.30;43.10;;;;;;5015092;28;20136;-79
2021/12/26 08:29:42;;;;;;;1.25;0.50;;;17.30;42.50;;;;;;5008292;28;20136;-80
2021/12/26 08:32:13;;;;;;;1.58;0.50;;;17.30;42.40;;;;;;5025327;28;20098;-79
2021/12/26 08:34:38;;;;;;;0.93;0.40;;;17.30;42.40;;;;;;5017963;28;20677;-80
2021/12/26 08:37:04;;;;;;;0.82;0.30;;;17.30;42.40;;;;;;5017863;28;20038;-80
2021/12/26 08:39:32;;;;;;;1.08;0.32;;;17.30;42.40;;;;;;5002033;28;20113;-79
2021/12/26 08:41:58;;;;;;;0.88;0.30;;;17.20;42.30;;;;;;5015594;28;20049;-79
2021/12/26 08:44:23;;;;;;;1.17;0.50;;;17.30;42.40;;;;;;5018326;28;20054;-80
2021/12/26 08:46:49;;;;;;;0.73;0.30;;;17.20;42.30;;;;;;5016161;28;20498;-79
2021/12/26 08:49:15;;;;;;;1.33;0.38;;;17.30;42.40;;;;;;5007584;28;20061;-79
2021/12/26 08:51:41;;;;;;;0.80;0.30;;;17.20;42.30;;;;;;5007958;28;20053;-79
2021/12/26 08:54:06;;;;;;;0.95;0.40;;;17.20;42.40;;;;;;5009453;28;20125;-80
2021/12/26 08:56:32;;;;;;;2.28;0.40;;;17.20;42.40;;;;;;5005011;28;20059;-79
2021/12/26 08:58:57;;;;;;;0.90;0.32;;;17.20;42.40;;;;;;5001133;28;20042;-79
2021/12/26 09:01:23;;;;;;;1.13;0.40;;;17.20;42.40;;;;;;5003778;28;20046;-79
2021/12/26 09:03:48;;;;;;;0.88;0.50;;;17.20;42.40;;;;;;4991171;28;20053;-79
2021/12/26 09:06:14;;;;;;;0.75;0.28;;;17.20;42.40;;;;;;5011043;28;20111;-79
2021/12/26 09:08:39;;;;;;;1.60;0.40;;;17.20;42.40;;;;;;5028434;28;20056;-79
2021/12/26 09:11:05;;;;;;;1.60;0.50;;;17.20;42.30;;;;;;5054471;28;20020;-79
2021/12/26 09:13:31;;;;;;;1.65;0.50;;;17.20;42.40;;;;;;5057964;28;20484;-79
2021/12/26 09:15:56;;;;;;;0.93;0.35;;;17.40;42.50;;;;;;5053867;28;20040;-80
2021/12/26 09:18:22;;;;;;;1.42;0.47;;;17.20;42.40;;;;;;5053895;28;20059;-79
2021/12/26 09:20:47;;;;;;;0.98;0.40;;;17.30;42.50;;;;;;5054362;28;20418;-79
2021/12/26 09:23:13;;;;;;;1.20;0.30;;;17.20;42.50;;;;;;5054612;28;20052;-79
2021/12/26 09:25:38;;;;;;;1.25;0.50;;;17.20;42.50;;;;;;5053361;28;20463;-79
2021/12/26 09:28:04;;;;;;;1.27;0.32;;;17.20;42.50;;;;;;5053147;28;20045;-79
2021/12/26 09:30:30;;;;;;;1.70;0.60;;;17.20;42.60;;;;;;5053972;28;20060;-79
2021/12/26 09:32:55;;;;;;;0.90;0.50;;;17.20;42.60;;;;;;5053946;28;20044;-79
2021/12/26 09:35:21;;;;;;;0.95;0.40;;;17.30;42.70;;;;;;5054053;28;20109;-79
2021/12/26 09:37:46;;;;;;;1.83;0.45;;;17.30;42.70;;;;;;5053252;28;20536;-79
2021/12/26 09:40:13;;;;;;;1.20;0.45;;;17.30;42.60;;;;;;5054012;28;20423;-79
2021/12/26 09:42:39;;;;;;;1.98;0.52;;;17.30;42.70;;;;;;5054298;28;20041;-79
2021/12/26 09:45:05;;;;;;;1.92;0.45;;;17.30;42.60;;;;;;5054013;28;20055;-79
2021/12/26 09:47:30;;;;;;;1.20;0.40;;;17.30;42.60;;;;;;5053542;28;20043;-79
2021/12/26 09:49:56;;;;;;;1.00;0.50;;;17.40;42.70;;;;;;5053840;28;20082;-80
2021/12/26 09:52:21;;;;;;;0.82;0.40;;;17.40;42.70;;;;;;5071706;28;20055;-80
2021/12/26 09:54:47;;;;;;;0.95;0.40;;;17.40;42.70;;;;;;5053675;28;20484;-80
2021/12/26 09:57:13;;;;;;;0.65;0.40;;;17.40;42.70;;;;;;5043181;28;20472;-79
2021/12/26 09:59:40;;;;;;;1.45;0.40;;;17.40;42.70;;;;;;5053272;28;20044;-79
2021/12/26 10:02:07;;;;;;;1.20;0.40;;;17.40;42.70;;;;;;5053906;28;20064;-80
2021/12/26 10:04:33;;;;;;;0.73;0.40;;;17.40;42.60;;;;;;5053619;28;20117;-79
2021/12/26 10:07:02;;;;;;;0.93;0.40;;;17.50;42.60;;;;;;5053131;28;20048;-79
2021/12/26 10:09:27;;;;;;;1.50;0.47;;;17.50;42.60;;;;;;5055583;28;20094;-80
2021/12/26 10:11:55;;;;;;;1.45;0.50;;;17.40;42.50;;;;;;5054311;28;20048;-79
2021/12/26 10:14:25;;;;;;;1.48;0.40;;;17.50;42.50;;;;;;5052801;28;20036;-80
2021/12/26 10:16:55;;;;;;;1.00;0.35;;;17.50;42.40;;;;;;5053000;28;20098;-79
2021/12/26 10:19:21;;;;;;;0.95;0.50;;;17.50;42.40;;;;;;5055649;28;20774;-79
2021/12/26 10:21:51;;;;;;;1.27;0.40;;;17.50;42.40;;;;;;5036166;28;20140;-79
2021/12/26 10:24:27;;;;;;;0.57;0.30;;;17.50;42.50;;;;;;5029099;28;20052;-79
2021/12/26 10:27:04;;;;;;;1.20;0.40;;;17.50;42.40;;;;;;5027484;28;20060;-78
2021/12/26 10:29:43;;;;;;;1.20;0.32;;;17.50;43.10;;;;;;5029046;28;20049;-78
2021/12/26 10:32:23;;;;;;;1.10;0.40;;;17.60;42.40;;;;;;5062633;28;20116;-74
2021/12/26 10:35:06;;;;;;;0.77;0.38;;;17.60;42.40;;;;;;5037114;28;21319;-78
2021/12/26 10:37:48;;;;;;;0.82;0.50;;;17.60;42.40;;;;;;5030984;28;20045;-79
2021/12/26 10:40:25;;;;;;;0.80;0.40;;;17.60;42.40;;;;;;5052211;28;20056;-79
2021/12/26 10:42:58;;;;;;;0.95;0.50;;;17.60;42.40;;;;;;5051382;28;20053;-78
2021/12/26 10:45:26;;;;;;;1.33;0.40;;;17.60;42.40;;;;;;5065941;28;20115;-79
2021/12/26 10:47:53;;;;;;;1.20;0.52;;;17.60;42.40;;;;;;5067422;28;20139;-78
2021/12/26 10:50:20;;;;;;;1.65;0.50;;;17.70;42.40;;;;;;5056453;28;20093;-79
2021/12/26 10:52:52;;;;;;;1.55;0.40;;;17.70;42.40;;;;;;5067573;28;20058;-79
2021/12/26 10:55:30;;;;;;;1.23;0.50;;;17.70;42.40;;;;;;5050320;28;20044;-79
2021/12/26 10:57:56;;;;;;;0.93;0.40;;;17.70;42.40;;;;;;5035825;28;20060;-79
2021/12/26 11:00:23;;;;;;;1.20;0.60;;;17.70;42.40;;;;;;5051793;28;20044;-79
2021/12/26 11:03:01;;;;;;;1.35;0.60;;;17.70;42.40;;;;;;5051253;28;20076;-79
2021/12/26 11:05:45;;;;;;;0.70;0.32;;;17.80;42.40;;;;;;5052431;28;20048;-79
2021/12/26 11:08:26;;;;;;;0.93;0.43;;;17.70;42.30;;;;;;5051953;28;20045;-79
2021/12/26 11:10:52;;;;;;;0.68;0.30;;;17.80;42.30;;;;;;5036260;28;20051;-79
2021/12/26 11:13:21;;;;;;;1.45;0.60;;;17.80;42.30;;;;;;5051799;28;20083;-79
2021/12/26 11:15:53;;;;;;;2.45;0.57;;;17.80;42.30;;;;;;5053874;28;20072;-78
2021/12/26 11:18:18;;;;;;;1.08;0.40;;;17.80;42.30;;;;;;5055398;28;20044;-78
2021/12/26 11:20:45;;;;;;;1.25;0.40;;;17.80;42.20;;;;;;5039935;28;20102;-78
2021/12/26 11:23:13;;;;;;;1.05;0.45;;;18.10;42.30;;;;;;5054200;28;20044;-78
2021/12/26 11:25:41;;;;;;;1.23;0.40;;;17.80;42.20;;;;;;5053586;28;20056;-78
2021/12/26 11:28:07;;;;;;;1.77;0.60;;;17.90;42.20;;;;;;5052301;28;20044;-78
2021/12/26 11:30:32;;;;;;;1.63;0.50;;;17.80;42.10;;;;;;5051150;28;20052;-78
2021/12/26 11:32:59;;;;;;;0.98;0.50;;;17.90;42.20;;;;;;5051385;28;20048;-79
2021/12/26 11:35:24;;;;;;;0.50;0.30;;;17.90;42.20;;;;;;5035064;28;20502;-79
2021/12/26 11:37:50;;;;;;;1.25;0.60;;;17.90;42.20;;;;;;5018467;28;20041;-79
2021/12/26 11:40:16;;;;;;;0.95;0.40;;;17.90;42.20;;;;;;5034977;28;20044;-79
2021/12/26 11:43:18;;;;;;;0.65;0.35;;;17.90;42.20;;;;;;5030726;28;20075;-79
2021/12/26 11:45:59;;;;;;;1.58;0.60;;;18.00;42.20;;;;;;4517362;28;9999675;-78
2021/12/26 11:48:51;;;;;;;0.65;0.40;;;18.00;42.30;;;;;;5051728;28;20056;-79
2021/12/26 11:51:39;;;;;;;1.43;0.60;;;18.00;42.20;;;;;;5036570;28;20049;-79
2021/12/26 11:54:13;;;;;;;0.98;0.40;;;18.00;42.20;;;;;;5039311;28;20290;-79
2021/12/26 11:56:48;;;;;;;0.88;0.40;;;18.00;42.20;;;;;;5034653;28;20106;-79
2021/12/26 11:59:25;;;;;;;1.35;0.50;;;18.00;42.20;;;;;;5034301;28;20056;-79
2021/12/26 12:01:50;;;;;;;1.70;0.50;;;18.10;42.30;;;;;;5034877;28;20052;-79
2021/12/26 12:04:23;;;;;;;1.17;0.40;;;18.10;42.30;;;;;;5029125;28;20150;-79
2021/12/26 12:06:50;;;;;;;1.13;0.40;;;18.00;42.10;;;;;;5027563;28;20481;-79
2021/12/26 12:09:22;;;;;;;1.70;0.50;;;18.10;42.20;;;;;;5028145;28;20103;-79
2021/12/26 12:11:57;;;;;;;;;;;18.10;42.20;;;;;;5028589;28;20053;-80
2021/12/26 12:14:57;;;;;;;1.15;0.45;;;18.10;42.20;;;;;;5027769;28;19932;-80
2021/12/26 12:17:24;;;;;;;1.13;0.60;;;18.10;42.10;;;;;;5019343;28;20046;-80
2021/12/26 12:20:13;;;;;;;1.65;0.50;;;18.10;42.10;;;;;;5050446;28;20053;-80
2021/12/26 12:23:09;;;;;;;0.93;0.40;;;18.20;42.20;;;;;;5050313;28;20578;-80
2021/12/26 12:25:34;;;;;;;1.30;0.45;;;18.20;42.30;;;;;;5051416;28;20048;-80
2021/12/26 12:28:07;;;;;;;0.88;0.38;;;18.20;42.10;;;;;;5047949;28;20450;-80
2021/12/26 12:30:32;;;;;;;0.63;0.38;;;18.20;42.10;;;;;;5049540;28;20049;-80
2021/12/26 12:33:28;;;;;;;1.45;0.50;;;18.20;42.10;;;;;;5042753;28;20052;-80
2021/12/26 12:36:01;;;;;;;1.17;0.57;;;18.20;42.10;;;;;;5031225;28;20536;-80
2021/12/26 12:38:45;;;;;;;1.20;0.50;;;18.20;42.10;;;;;;5031574;28;20048;-80
2021/12/26 12:41:29;;;;;;;0.90;0.40;;;18.20;42.00;;;;;;5032323;28;20056;-81
2021/12/26 12:44:03;;;;;;;1.05;0.40;;;18.20;42.00;;;;;;5051522;28;20068;-81
2021/12/26 12:46:29;;;;;;;1.58;0.50;;;18.30;42.10;;;;;;5054923;28;20421;-81
2021/12/26 12:49:08;;;;;;;1.05;0.47;;;18.30;42.10;;;;;;5051833;28;20063;-79
2021/12/26 12:51:46;;;;;;;0.93;0.50;;;18.30;42.10;;;;;;5053589;28;20037;-79
2021/12/26 12:54:23;;;;;;;0.70;0.50;;;18.30;42.00;;;;;;5034659;28;20147;-78
2021/12/26 12:56:49;;;;;;;1.33;0.50;;;18.30;42.00;;;;;;5054321;28;20113;-79